createdAt,value
2018-12-03T00:01:06.982Z,17.80
2018-12-03T00:03:36.288Z,18.80
2018-12-03T00:06:05.165Z,18.85
2018-12-03T00:08:33.666Z,20.43
2018-12-03T00:11:02.986Z,21.25
2018-12-03T00:13:31.517Z,19.07
2018-12-03T00:16:00.041Z,19.48
2018-12-03T00:18:28.560Z,18.57
2018-12-03T00:20:57.433Z,25.08
2018-12-03T00:23:25.951Z,21.37
2018-12-03T00:25:54.486Z,21.65
2018-12-03T00:28:23.682Z,19.73
2018-12-03T00:30:52.531Z,22.95
2018-12-03T00:33:21.070Z,21.25
2018-12-03T00:35:49.927Z,20.65
2018-12-03T00:38:18.430Z,20.12
2018-12-03T00:40:47.272Z,21.52
2018-12-03T00:43:16.103Z,20.15
2018-12-03T00:45:44.921Z,21.65
2018-12-03T00:48:13.423Z,21.70
2018-12-03T00:50:41.935Z,20.75
2018-12-03T00:53:10.439Z,20.25
2018-12-03T00:55:38.966Z,24.45
2018-12-03T00:58:08.149Z,20.12
2018-12-03T01:00:36.983Z,20.95
2018-12-03T01:03:06.040Z,23.73
2018-12-03T01:05:34.892Z,23.55
2018-12-03T01:08:03.749Z,22.80
2018-12-03T01:10:32.603Z,24.23
2018-12-03T01:13:01.492Z,23.52
2018-12-03T01:15:30.010Z,19.35
2018-12-03T01:17:59.168Z,22.82
2018-12-03T01:20:27.673Z,22.35
2018-12-03T01:22:56.213Z,23.70
2018-12-03T01:25:25.068Z,24.15
2018-12-03T01:27:53.915Z,24.15
2018-12-03T01:30:23.016Z,24.82
2018-12-03T01:32:51.535Z,22.30
2018-12-03T01:35:20.382Z,25.77
2018-12-03T01:37:49.944Z,27.32
2018-12-03T01:40:18.793Z,22.00
2018-12-03T01:42:47.646Z,24.47
2018-12-03T01:45:16.182Z,25.08
2018-12-03T01:47:44.708Z,23.52
2018-12-03T01:50:14.415Z,20.55
2018-12-03T01:52:43.275Z,22.05
2018-12-03T01:55:12.162Z,26.27
2018-12-03T01:57:40.678Z,24.00
2018-12-03T02:00:13.681Z,22.67
2018-12-03T02:02:43.072Z,20.77
2018-12-03T02:05:12.040Z,23.80
2018-12-03T02:07:40.583Z,20.05
2018-12-03T02:10:14.007Z,20.52
2018-12-03T02:12:42.541Z,19.80
2018-12-03T02:15:12.286Z,22.60
2018-12-03T02:17:41.071Z,18.95
2018-12-03T02:20:16.260Z,21.93
2018-12-03T02:22:45.163Z,21.27
2018-12-03T02:25:14.063Z,23.62
2018-12-03T02:27:43.105Z,23.83
2018-12-03T02:30:15.846Z,20.05
2018-12-03T02:32:44.745Z,21.33
2018-12-03T02:35:15.389Z,21.30
2018-12-03T02:37:44.262Z,20.57
2018-12-03T02:40:15.165Z,23.22
2018-12-03T02:42:43.753Z,19.07
2018-12-03T02:45:13.107Z,21.87
2018-12-03T02:47:41.961Z,20.65
2018-12-03T02:50:14.296Z,21.37
2018-12-03T02:52:43.136Z,21.27
2018-12-03T02:55:12.732Z,21.70
2018-12-03T02:57:41.573Z,21.50
2018-12-03T03:00:14.953Z,21.65
2018-12-03T03:02:43.999Z,22.00
2018-12-03T03:05:14.306Z,22.77
2018-12-03T03:07:43.072Z,23.00
2018-12-03T03:10:15.885Z,23.10
2018-12-03T03:12:44.716Z,20.20
2018-12-03T03:15:14.590Z,21.50
2018-12-03T03:17:43.439Z,21.05
2018-12-03T03:20:13.464Z,22.30
2018-12-03T03:22:42.384Z,18.80
2018-12-03T03:25:11.701Z,20.95
2018-12-03T03:27:40.981Z,18.27
2018-12-03T03:30:13.191Z,21.82
2018-12-03T03:32:42.111Z,19.07
2018-12-03T03:35:11.880Z,20.17
2018-12-03T03:37:40.872Z,19.48
2018-12-03T03:40:11.287Z,20.75
2018-12-03T03:42:40.263Z,18.70
2018-12-03T03:45:12.769Z,22.45
2018-12-03T03:47:41.408Z,20.12
2018-12-03T03:50:10.891Z,17.05
2018-12-03T03:52:39.992Z,19.23
2018-12-03T03:55:09.648Z,16.82
2018-12-03T03:57:38.823Z,20.48
2018-12-03T04:00:12.384Z,15.93
2018-12-03T04:02:40.939Z,17.12
2018-12-03T04:05:10.569Z,16.82
2018-12-03T04:07:39.440Z,16.00
2018-12-03T04:10:10.991Z,15.20
2018-12-03T04:12:40.440Z,12.55
2018-12-03T04:15:10.183Z,14.80
2018-12-03T04:17:39.183Z,13.78
2018-12-03T04:20:17.124Z,13.25
2018-12-03T04:22:47.772Z,14.30
2018-12-03T04:25:17.017Z,11.18
2018-12-03T04:27:46.240Z,13.83
2018-12-03T04:30:16.872Z,15.80
2018-12-03T04:32:45.761Z,15.10
2018-12-03T04:35:14.840Z,13.05
2018-12-03T04:37:43.947Z,15.78
2018-12-03T04:40:14.928Z,13.13
2018-12-03T04:42:43.944Z,12.58
2018-12-03T04:45:14.802Z,13.00
2018-12-03T04:47:43.786Z,16.50
2018-12-03T04:50:16.781Z,14.20
2018-12-03T04:52:45.385Z,13.83
2018-12-03T04:55:16.557Z,15.40
2018-12-03T04:57:45.528Z,13.80
2018-12-03T05:00:16.428Z,11.70
2018-12-03T05:02:46.308Z,15.10
2018-12-03T05:05:15.587Z,14.30
2018-12-03T05:07:44.853Z,16.25
2018-12-03T05:10:14.945Z,16.93
2018-12-03T05:12:44.896Z,14.18
2018-12-03T05:15:14.253Z,15.95
2018-12-03T05:17:44.626Z,14.73
2018-12-03T05:20:16.654Z,14.45
2018-12-03T05:22:45.233Z,16.02
2018-12-03T05:25:18.914Z,18.17
2018-12-03T05:27:42.501Z,19.40
2018-12-03T05:30:16.384Z,17.52
2018-12-03T05:32:45.807Z,18.95
2018-12-03T05:35:16.368Z,18.25
2018-12-03T05:37:45.300Z,22.02
2018-12-03T05:40:17.517Z,18.00
2018-12-03T05:42:46.654Z,24.95
2018-12-03T05:45:15.609Z,19.73
2018-12-03T05:47:45.218Z,25.37
2018-12-03T05:50:14.825Z,20.68
2018-12-03T05:52:44.864Z,25.35
2018-12-03T05:55:13.958Z,33.70
2018-12-03T05:57:42.852Z,26.20
2018-12-03T06:00:12.751Z,21.25
2018-12-03T06:02:41.928Z,21.00
2018-12-03T06:05:11.260Z,28.15
2018-12-03T06:07:40.091Z,22.17
2018-12-03T06:10:16.466Z,26.82
2018-12-03T06:12:45.071Z,29.10
2018-12-03T06:15:15.884Z,25.00
2018-12-03T06:17:49.059Z,23.87
2018-12-03T06:35:24.352Z,22.03
2018-12-03T06:38:01.250Z,22.15
2018-12-03T06:46:17.381Z,19.15
2018-12-03T06:48:46.577Z,21.33
2018-12-03T06:51:15.093Z,19.55
2018-12-03T06:53:43.645Z,19.42
2018-12-03T06:56:12.224Z,21.85
2018-12-03T06:58:41.138Z,22.02
2018-12-03T07:01:09.987Z,20.08
2018-12-03T07:03:38.813Z,23.25
2018-12-03T07:06:08.301Z,20.55
2018-12-03T07:08:37.162Z,17.35
2018-12-03T07:11:06.048Z,19.40
2018-12-03T07:13:34.862Z,17.90
2018-12-03T07:16:04.690Z,23.35
2018-12-03T21:45:20.191Z,13.50
2018-12-03T21:50:42.085Z,13.95
2018-12-03T22:02:39.411Z,13.32
2018-12-03T22:05:10.328Z,15.40
2018-12-03T22:07:51.587Z,13.72
2018-12-03T22:14:19.994Z,14.83
2018-12-03T22:30:31.591Z,14.13
2018-12-03T22:33:07.650Z,17.80
2018-12-03T22:35:40.969Z,17.75
2018-12-03T22:38:12.353Z,13.18
2018-12-03T22:40:49.830Z,14.10
2018-12-03T22:43:24.413Z,17.20
2018-12-03T22:45:56.102Z,14.15
2018-12-03T22:48:28.714Z,15.10
2018-12-03T22:50:58.045Z,13.68
2018-12-03T22:53:28.615Z,14.95
2018-12-03T22:55:58.887Z,14.43
2018-12-03T22:58:29.913Z,13.40
2018-12-03T23:01:09.286Z,16.65
2018-12-03T23:03:45.159Z,16.93
2018-12-03T23:06:18.880Z,16.93
2018-12-03T23:09:06.750Z,16.55
2018-12-03T23:11:38.089Z,16.20
2018-12-03T23:14:07.801Z,18.40
2018-12-03T23:16:40.592Z,15.20
2018-12-03T23:19:11.957Z,17.37
2018-12-03T23:21:42.976Z,18.80
2018-12-03T23:24:15.206Z,16.60
2018-12-03T23:26:51.771Z,16.52
2018-12-03T23:29:24.623Z,18.85
2018-12-03T23:31:57.240Z,20.75
2018-12-03T23:34:27.920Z,18.30
2018-12-03T23:36:56.704Z,16.65
2018-12-03T23:39:26.247Z,18.30
2018-12-03T23:42:00.684Z,14.30
2018-12-03T23:44:30.647Z,16.80
2018-12-03T23:47:00.202Z,17.85
2018-12-03T23:49:30.677Z,14.28
2018-12-03T23:51:59.657Z,19.12
2018-12-03T23:54:28.357Z,18.10
2018-12-03T23:56:57.378Z,19.20
2018-12-03T23:59:28.497Z,16.67
